Data for 12/05/2007

Time Sea-Level Adjusted Pressure Absolute Pressure Temperature Relative Humidity Dew Point   
(mb) (inHg) (mb) (inHg) (C) (F) (%) (C) (F)
00:05 1021 30.15 850 25.1 4.8 40.6 56 -3.2 26.2
00:10 1021 30.15 850 25.1 4.8 40.6 56 -3.2 26.3
00:15 1021 30.15 850 25.1 4.8 40.6 57 -3.1 26.5
00:20 1021 30.15 850 25.1 4.8 40.7 56 -3.1 26.4
00:25 1021 30.15 850 25.1 4.7 40.5 56 -3.2 26.3
00:30 1021 30.15 850 25.1 4.7 40.5 57 -3 26.7
00:35 1021 30.15 850 25.1 4.6 40.3 58 -2.9 26.7
00:40 1021 30.15 850 25.1 4.5 40.1 58 -3.1 26.4
00:45 1021 30.15 850 25.1 4.4 40 59 -2.8 27
00:50 1021 30.15 850 25.1 4.4 39.9 57 -3.5 25.7
00:55 1020 30.12 850 25.1 4.6 40.2 57 -3.3 26.1
01:00 1020 30.12 850 25.1 4.5 40 59 -2.8 26.9
01:05 1020 30.12 850 25.1 4.1 39.4 58 -3.3 26
01:10 1020 30.12 850 25.1 4.3 39.7 58 -3.2 26.2
01:15 1020 30.12 850 25.1 4.5 40.1 57 -3.4 25.9
01:20 1020 30.12 850 25.1 4.7 40.5 55 -3.6 25.5
01:25 1020 30.12 850 25.1 4.8 40.7 56 -3.2 26.2
01:30 1020 30.12 850 25.1 4.8 40.7 56 -3.3 26
01:35 1020 30.12 850 25.1 4.7 40.5 56 -3.4 25.8
01:40 1020 30.12 850 25.1 4.8 40.6 55 -3.5 25.6
01:45 1020 30.12 850 25.1 4.9 40.7 55 -3.5 25.8
01:50 1020 30.12 850 25.1 4.8 40.6 55 -3.5 25.7
01:55 1020 30.12 850 25.1 4.7 40.5 56 -3.4 25.9
02:00 1020 30.12 850 25.1 4.7 40.4 56 -3.4 25.8
02:05 1021 30.15 850 25.1 4.5 40.1 57 -3.3 26.1
02:10 1021 30.15 850 25.1 4.4 40 57 -3.3 26.1
02:15 1021 30.15 850 25.1 4.3 39.8 57 -3.3 26
02:20 1021 30.15 850 25.1 4.3 39.8 58 -3.1 26.4
02:25 1021 30.15 850 25.1 4.3 39.8 57 -3.4 25.9
02:30 1021 30.15 850 25.1 4.3 39.8 58 -3.2 26.2
02:35 1021 30.15 850 25.1 4.3 39.8 58 -3.2 26.3
02:40 1021 30.15 850 25.1 4.2 39.6 59 -3.1 26.3
02:45 1021 30.15 850 25.1 4.1 39.4 58 -3.3 26
02:50 1021 30.15 850 25.1 4 39.3 59 -3.3 26
02:55 1021 30.15 850 25.1 4.1 39.3 58 -3.4 25.9
03:00 1020 30.12 850 25.1 4.2 39.5 58 -3.5 25.8
03:05 1020 30.12 850 25.1 4.2 39.5 58 -3.4 25.8
03:10 1020 30.12 850 25.1 4.1 39.4 60 -3.1 26.5
03:15 1020 30.12 850 25.1 3.8 38.9 60 -3.3 26.1
03:20 1020 30.12 849 25.07 3.8 38.9 60 -3.2 26.2
03:25 1020 30.12 849 25.07 3.9 38.9 59 -3.4 25.8
03:30 1020 30.12 849 25.07 3.6 38.5 62 -2.9 26.7
03:35 1020 30.12 849 25.07 3.4 38 61 -3.4 25.9
03:40 1020 30.12 849 25.07 3.5 38.2 61 -3.3 26.1
03:45 1020 30.12 849 25.07 3.4 38.2 60 -3.5 25.6
03:50 1020 30.12 849 25.07 3.6 38.5 58 -3.9 25
03:55 1020 30.12 849 25.07 4 39.2 56 -4 24.9
04:00 1020 30.12 849 25.07 4.2 39.6 56 -3.7 25.3
04:05 1020 30.12 849 25.07 4.3 39.7 56 -3.7 25.3
04:10 1020 30.12 849 25.07 4.1 39.4 60 -3 26.6
04:15 1020 30.12 849 25.07 3.6 38.5 63 -2.8 27
04:20 1020 30.12 849 25.07 3.1 37.5 65 -2.9 26.8
04:25 1020 30.12 849 25.07 2.8 37.1 65 -3 26.5
04:30 1020 30.12 849 25.07 2.9 37.1 64 -3.3 26.1
04:35 1020 30.12 849 25.07 3.2 37.8 62 -3.3 26.1
04:40 1020 30.12 849 25.07 3.3 37.9 63 -3.1 26.4
04:45 1020 30.12 849 25.07 3.1 37.5 64 -3.2 26.3
04:50 1020 30.12 849 25.07 2.9 37.3 64 -3.2 26.3
04:55 1020 30.12 849 25.07 3 37.5 63 -3.3 26.1
05:00 1019 30.09 849 25.07 3.2 37.7 63 -3.1 26.4
05:05 1020 30.12 849 25.07 3.3 37.9 64 -3 26.7
05:10 1020 30.12 849 25.07 3.3 37.9 63 -3 26.6
05:15 1020 30.12 849 25.07 3.2 37.8 63 -3.1 26.3
05:20 1020 30.12 849 25.07 3.2 37.7 63 -3.2 26.2
05:25 1019 30.09 849 25.07 3 37.5 63 -3.3 26
05:30 1019 30.09 849 25.07 3 37.5 63 -3.4 25.9
05:35 1019 30.09 849 25.07 3.2 37.7 62 -3.4 25.9
05:40 1019 30.09 849 25.07 3.1 37.6 62 -3.4 25.9
05:45 1019 30.09 848 25.04 2.9 37.1 63 -3.4 25.8
05:50 1019 30.09 848 25.04 2.8 37 62 -3.8 25.2
05:55 1019 30.09 848 25.04 2.8 37.1 61 -4 24.9
06:00 1019 30.09 848 25.04 3 37.4 61 -3.8 25.2
06:05 1019 30.09 849 25.07 3 37.5 61 -3.7 25.3
06:10 1019 30.09 849 25.07 2.5 36.5 65 -3.4 25.9
06:15 1019 30.09 849 25.07 2.4 36.3 65 -3.6 25.6
06:20 1019 30.09 849 25.07 2.5 36.5 64 -3.7 25.3
06:25 1019 30.09 848 25.04 2.5 36.4 62 -4 24.8
06:30 1019 30.09 848 25.04 2.7 36.8 59 -4.4 24
06:35 1019 30.09 848 25.04 2.9 37.3 59 -4.4 24.1
06:40 1019 30.09 848 25.04 2.9 37.1 60 -4.2 24.4
06:45 1019 30.09 848 25.04 2.8 37.1 58 -4.5 23.8
06:50 1019 30.09 848 25.04 2.9 37.3 59 -4.3 24.3
06:55 1019 30.09 848 25.04 2.8 37 62 -3.8 25.2
07:00 1019 30.09 848 25.04 2.3 36.2 63 -3.9 25
07:05 1019 30.09 848 25.04 2.1 35.8 63 -4.1 24.6
07:10 1019 30.09 848 25.04 2.1 35.8 63 -4.3 24.3
07:15 1019 30.09 848 25.04 2.2 36 61 -4.5 23.9
07:20 1019 30.09 848 25.04 2.5 36.5 61 -4.4 24.2
07:25 1019 30.09 848 25.04 2.5 36.5 62 -4.2 24.5
07:30 1019 30.09 848 25.04 2.2 35.9 64 -4 24.7
07:35 1019 30.09 848 25.04 1.8 35.3 63 -4.4 24.2
07:40 1019 30.09 848 25.04 1.9 35.4 63 -4.4 24.1
07:45 1019 30.09 848 25.04 2 35.6 63 -4.3 24.2
07:50 1019 30.09 848 25.04 2 35.6 63 -4.3 24.2
07:55 1019 30.09 848 25.04 2 35.6 63 -4.4 24.2
08:00 1019 30.09 848 25.04 2.1 35.8 62 -4.4 24.1
08:05 1019 30.09 848 25.04 2.3 36.1 61 -4.5 23.9
08:10 1019 30.09 848 25.04 2.2 36 63 -4.2 24.5
08:15 1019 30.09 848 25.04 2 35.6 63 -4.2 24.4
08:20 1019 30.09 848 25.04 2.2 35.9 62 -4.4 24.2
08:25 1019 30.09 848 25.04 2.4 36.2 61 -4.4 24.1
08:30 1019 30.09 848 25.04 2.6 36.6 60 -4.4 24.1
08:35 1019 30.09 848 25.04 2.8 37.1 59 -4.5 23.9
08:40 1019 30.09 848 25.04 3.2 37.7 56 -4.6 23.6
08:45 1019 30.09 848 25.04 3.5 38.4 55 -4.7 23.6
08:50 1019 30.09 848 25.04 3.9 39 54 -4.5 23.8
08:55 1019 30.09 848 25.04 4.3 39.8 53 -4.6 23.8
09:00 1019 30.09 848 25.04 4.6 40.2 53 -4.3 24.2
09:05 1019 30.09 848 25.04 4.6 40.3 53 -4.2 24.4
09:10 1019 30.09 848 25.04 4.6 40.3 52 -4.4 24.1
09:15 1019 30.09 848 25.04 5 41 51 -4.3 24.3
09:20 1018 30.06 848 25.04 4.9 40.9 53 -3.9 25.1
09:25 1018 30.06 848 25.04 4.4 39.9 55 -3.9 25
09:30 1018 30.06 848 25.04 4.3 39.8 54 -4.2 24.5
09:35 1018 30.06 848 25.04 4.5 40.1 54 -3.9 25
09:40 1018 30.06 847 25.01 4.5 40.1 54 -4 24.9
09:45 1018 30.06 847 25.01 4.3 39.7 55 -3.9 24.9
09:50 1018 30.06 847 25.01 4.4 39.9 53 -4.3 24.3
09:55 1018 30.06 847 25.01 4.5 40.1 53 -4.3 24.2
10:00 1018 30.06 847 25.01 4.2 39.6 54 -4.3 24.3
10:05 1018 30.06 847 25.01 4.4 39.9 54 -4.1 24.6
10:10 1018 30.06 847 25.01 4.4 39.9 54 -4 24.8
10:15 1018 30.06 847 25.01 4.4 39.9 54 -4.1 24.6
10:20 1018 30.06 847 25.01 4.7 40.5 54 -3.8 25.1
10:25 1018 30.06 847 25.01 4.9 40.8 53 -3.9 25
10:30 1018 30.06 847 25.01 5.3 41.5 52 -3.9 25
10:35 1018 30.06 847 25.01 5.6 42.1 51 -3.7 25.4
10:40 1018 30.06 847 25.01 5.3 41.5 52 -3.8 25.2
10:45 1018 30.06 847 25.01 5.4 41.7 53 -3.5 25.8
10:50 1018 30.06 847 25.01 5.3 41.6 51 -4.1 24.7
10:55 1018 30.06 847 25.01 5.2 41.4 53 -3.7 25.3
11:00 1018 30.06 847 25.01 5.2 41.4 50 -4.2 24.4
11:05 1017 30.03 847 25.01 5.2 41.3 51 -4.1 24.6
11:10 1017 30.03 847 25.01 5.1 41.2 51 -4.2 24.4
11:15 1017 30.03 846 24.98 5.1 41.3 51 -4.1 24.7
11:20 1017 30.03 846 24.98 5.3 41.6 50 -4.2 24.4
11:25 1017 30.03 846 24.98 5.1 41.2 51 -4.3 24.3
11:30 1017 30.03 846 24.98 5 41 52 -4 24.7
11:35 1017 30.03 846 24.98 4.9 40.8 52 -4.1 24.6
11:40 1017 30.03 846 24.98 5.1 41.2 53 -3.8 25.2
11:45 1017 30.03 846 24.98 5.2 41.3 52 -3.9 25
11:50 1017 30.03 846 24.98 4.9 40.8 54 -3.5 25.7
11:55 1017 30.03 846 24.98 4.7 40.5 54 -3.9 25
12:00 1017 30.03 846 24.98 5.2 41.3 53 -3.5 25.7
12:05 1017 30.03 846 24.98 4.7 40.4 55 -3.7 25.4
12:10 1017 30.03 846 24.98 4.7 40.5 54 -3.7 25.3
12:15 1016 30 846 24.98 5 41.1 53 -3.7 25.4
12:20 1016 30 846 24.98 5.3 41.5 54 -3.3 26.1
12:25 1016 30 846 24.98 5.3 41.6 53 -3.4 25.9
12:30 1016 30 845 24.95 6.3 43.4 48 -3.9 25.1
12:35 1016 30 845 24.95 7.1 44.8 47 -3.3 26.1
12:40 1016 30 845 24.95 6.8 44.3 49 -3.1 26.4
12:45 1016 30 845 24.95 6.4 43.6 52 -2.8 27
12:50 1016 30 845 24.95 6.1 43 52 -2.9 26.8
12:55 1016 30 845 24.95 6 42.8 53 -2.8 27
13:00 1016 30 845 24.95 6 42.7 53 -2.9 26.9
13:05 1016 30 845 24.95 6 42.8 53 -2.8 26.9
13:10 1016 30 845 24.95 5.9 42.6 54 -2.7 27.2
13:15 1016 30 845 24.95 5.8 42.5 53 -3 26.7
13:20 1015 29.97 845 24.95 5.6 42.1 54 -2.9 26.7
13:25 1015 29.97 845 24.95 5.7 42.3 53 -3.1 26.4
13:30 1015 29.97 844 24.92 5.6 42.1 53 -3.3 26.1
13:35 1015 29.97 844 24.92 5.4 41.8 54 -3.1 26.4
13:40 1015 29.97 844 24.92 5.6 42 54 -3.1 26.5
13:45 1015 29.97 844 24.92 5.6 42.1 55 -2.8 26.9
13:50 1015 29.97 844 24.92 5.5 41.9 54 -3 26.6
13:55 1015 29.97 844 24.92 5.4 41.7 55 -2.9 26.8
14:00 1015 29.97 844 24.92 5.4 41.8 55 -2.9 26.7
14:05 1015 29.97 844 24.92 5.5 41.8 56 -2.6 27.3
14:10 1015 29.97 844 24.92 5.6 42.1 55 -2.7 27.1
14:15 1015 29.97 844 24.92 5.8 42.4 55 -2.7 27.2
14:20 1015 29.97 844 24.92 5.8 42.5 56 -2.3 27.9
14:25 1015 29.97 844 24.92 5.9 42.6 56 -2.1 28.2
14:30 1015 29.97 844 24.92 5.8 42.5 58 -1.7 29
14:35 1015 29.97 844 24.92 5.2 41.3 60 -2 28.3
14:40 1015 29.97 844 24.92 4.4 39.9 59 -2.8 26.9
14:45 1015 29.97 844 24.92 4.1 39.4 58 -3.4 25.8
14:50 1015 29.97 844 24.92 4.1 39.5 56 -3.8 25.2
14:55 1015 29.97 844 24.92 4.4 40 57 -3.4 25.8
15:00 1015 29.97 844 24.92 4.4 39.9 56 -3.6 25.6
15:05 1014 29.94 844 24.92 4.7 40.5 55 -3.6 25.5
15:10 1014 29.94 844 24.92 5.7 42.2 51 -3.6 25.5
15:15 1014 29.94 844 24.92 6.6 43.9 47 -3.9 25.1
15:20 1014 29.94 843 24.89 7.3 45.1 45 -3.8 25.1
15:25 1014 29.94 843 24.89 7.5 45.5 43 -4.2 24.5
15:30 1014 29.94 843 24.89 7.7 45.8 42 -4.4 24
15:35 1014 29.94 843 24.89 7.6 45.7 44 -3.7 25.3
15:40 1014 29.94 843 24.89 7.7 45.9 43 -4.2 24.5
15:45 1014 29.94 843 24.89 7.8 46 42 -4.3 24.3
15:50 1014 29.94 843 24.89 7.6 45.7 43 -4.2 24.4
15:55 1014 29.94 843 24.89 7.7 45.8 40 -5.2 22.6
16:00 1014 29.94 843 24.89 7.5 45.5 39 -5.5 22.1
16:05 1014 29.94 843 24.89 7.4 45.4 39 -5.6 21.9
16:10 1014 29.94 843 24.89 7.2 44.9 40 -5.4 22.3
16:15 1014 29.94 843 24.89 6.9 44.4 41 -5.6 21.9
16:20 1014 29.94 843 24.89 6.4 43.5 43 -5.2 22.6
16:25 1014 29.94 843 24.89 6 42.8 46 -4.8 23.4
16:30 1014 29.94 843 24.89 5.7 42.2 47 -4.8 23.3
16:35 1014 29.94 843 24.89 5.3 41.5 49 -4.5 23.8
16:40 1014 29.94 843 24.89 5 41 50 -4.6 23.8
16:45 1014 29.94 843 24.89 4.8 40.6 50 -4.8 23.3
16:50 1014 29.94 843 24.89 4.5 40.2 51 -4.8 23.4
16:55 1014 29.94 843 24.89 4.3 39.7 52 -4.8 23.3
17:00 1014 29.94 843 24.89 4 39.3 52 -5 22.9
17:05 1014 29.94 843 24.89 4 39.2 51 -5.1 22.7
17:10 1014 29.94 843 24.89 4 39.1 52 -5 22.9
17:15 1014 29.94 843 24.89 4 39.2 51 -5.2 22.6
17:20 1014 29.94 843 24.89 3.9 39.1 51 -5.4 22.4
17:25 1014 29.94 843 24.89 3.9 39.1 50 -5.6 22
17:30 1014 29.94 843 24.89 4 39.3 48 -5.9 21.4
17:35 1014 29.94 843 24.89 4.1 39.4 49 -5.6 21.9
17:40 1014 29.94 843 24.89 4.1 39.3 49 -5.8 21.5
17:45 1014 29.94 843 24.89 4 39.2 49 -5.7 21.8
17:50 1014 29.94 843 24.89 3.9 39 49 -5.9 21.5
17:55 1014 29.94 843 24.89 3.9 39 50 -5.7 21.8
18:00 1014 29.94 843 24.89 3.8 38.9 49 -5.9 21.4
18:05 1014 29.94 843 24.89 3.7 38.7 51 -5.6 21.8
18:10 1014 29.94 843 24.89 3.6 38.4 50 -6 21.3
18:15 1014 29.94 843 24.89 3.5 38.2 50 -6 21.1
18:20 1014 29.94 843 24.89 3.4 38.2 50 -6 21.2
18:25 1014 29.94 843 24.89 3.3 38 50 -6.1 21
18:30 1014 29.94 843 24.89 3.4 38.2 49 -6.3 20.6
18:35 1014 29.94 843 24.89 3.4 38.1 51 -5.9 21.4
18:40 1013 29.91 843 24.89 3.1 37.6 51 -5.9 21.3
18:45 1013 29.91 843 24.89 3 37.3 52 -5.9 21.3
18:50 1013 29.91 843 24.89 2.8 37.1 53 -5.9 21.3
18:55 1013 29.91 843 24.89 2.6 36.7 53 -6.1 21
19:00 1013 29.91 842 24.86 2.5 36.5 56 -5.4 22.3
19:05 1013 29.91 842 24.86 2.1 35.8 58 -5.3 22.5
19:10 1013 29.91 842 24.86 2.2 35.9 57 -5.4 22.3
19:15 1013 29.91 842 24.86 2.4 36.4 56 -5.4 22.2
19:20 1013 29.91 842 24.86 2.7 36.8 53 -6.1 21.1
19:25 1013 29.91 842 24.86 3 37.3 49 -6.6 20.1
19:30 1013 29.91 842 24.86 3.1 37.7 49 -6.6 20.2
19:35 1013 29.91 842 24.86 3.1 37.7 49 -6.5 20.3
19:40 1013 29.91 842 24.86 2.8 37.1 51 -6.2 20.8
19:45 1013 29.91 842 24.86 2.5 36.5 54 -5.9 21.3
19:50 1013 29.91 842 24.86 2.3 36.1 53 -6.3 20.7
19:55 1013 29.91 842 24.86 2.4 36.3 53 -6.2 20.9
20:00 1013 29.91 842 24.86 2.4 36.3 54 -6.1 21.1
20:05 1013 29.91 842 24.86 2.1 35.9 57 -5.6 21.9
20:10 1013 29.91 842 24.86 1.7 35 57 -6 21.3
20:15 1013 29.91 842 24.86 1.6 34.9 60 -5.5 22.2
20:20 1013 29.91 842 24.86 1.2 34.2 64 -4.9 23.3
20:25 1013 29.91 842 24.86 0.9 33.6 63 -5.2 22.6
20:30 1013 29.91 842 24.86 0.9 33.6 62 -5.5 22.1
20:35 1013 29.91 842 24.86 0.9 33.6 61 -5.7 21.8
20:40 1013 29.91 842 24.86 0.7 33.3 61 -5.9 21.5
20:45 1013 29.91 842 24.86 0.6 33.1 62 -5.8 21.6
20:50 1013 29.91 842 24.86 0.4 32.8 64 -5.7 21.7
20:55 1013 29.91 842 24.86 0.6 33.1 62 -5.8 21.5
21:00 1013 29.91 842 24.86 0.6 33.1 62 -5.9 21.3
21:05 1013 29.91 842 24.86 0.7 33.2 60 -6.1 21
21:10 1013 29.91 842 24.86 0.8 33.5 61 -6 21.3
21:15 1013 29.91 842 24.86 0.9 33.7 59 -6.1 21
21:20 1013 29.91 842 24.86 1.3 34.3 58 -6.1 21
21:25 1013 29.91 842 24.86 1.5 34.7 58 -5.8 21.5
21:30 1013 29.91 842 24.86 1.6 34.8 57 -6 21.2
21:35 1013 29.91 842 24.86 1.7 35 57 -6.1 21.1
21:40 1013 29.91 842 24.86 2 35.5 56 -5.9 21.3
21:45 1013 29.91 842 24.86 2.1 35.8 55 -6.1 21.1
21:50 1013 29.91 842 24.86 2.2 36 55 -5.9 21.4
21:55 1013 29.91 842 24.86 2.2 36 54 -6.1 21
22:00 1013 29.91 842 24.86 2.3 36.1 54 -6 21.2
22:05 1013 29.91 842 24.86 2.3 36.1 54 -6 21.1
22:10 1013 29.91 842 24.86 2.3 36.2 54 -6 21.2
22:15 1013 29.91 842 24.86 2.4 36.4 54 -6 21.2
22:20 1013 29.91 842 24.86 2.5 36.6 54 -5.9 21.4
22:25 1013 29.91 842 24.86 2.5 36.5 54 -5.8 21.5
22:30 1012 29.88 842 24.86 2.4 36.4 56 -5.6 22
22:35 1013 29.91 842 24.86 2.4 36.3 55 -5.6 21.9
22:40 1012 29.88 842 24.86 2.4 36.3 56 -5.6 21.9
22:45 1012 29.88 842 24.86 2.4 36.3 56 -5.5 22.2
22:50 1012 29.88 842 24.86 2.3 36.1 59 -5 23
22:55 1012 29.88 842 24.86 1.7 35 61 -5.1 22.9
23:00 1012 29.88 842 24.86 1.4 34.5 61 -5.2 22.6
23:05 1012 29.88 842 24.86 1.5 34.7 62 -5 22.9
23:10 1012 29.88 842 24.86 1.5 34.7 62 -4.9 23.1
23:15 1012 29.88 842 24.86 1.2 34.2 64 -4.9 23.1
23:20 1012 29.88 842 24.86 1.1 34.1 62 -5.2 22.6
23:25 1012 29.88 842 24.86 1.3 34.3 62 -5.3 22.5
23:30 1012 29.88 842 24.86 1.3 34.3 61 -5.5 22.2
23:35 1012 29.88 841 24.83 1.3 34.3 61 -5.3 22.4
23:40 1012 29.88 841 24.83 1.5 34.7 61 -5.2 22.7
23:45 1012 29.88 841 24.83 1.6 34.8 61 -5.1 22.8
23:50 1012 29.88 841 24.83 1.6 34.8 61 -5.1 22.8
23:55 1012 29.88 841 24.83 1.6 34.9 62 -5 23
24:00 1012 29.88 841 24.83 1.6 34.9 62 -5 23.1